sensor_id;sensor_type;location;lat;lon;timestamp;P1;durP1;ratioP1;P2;durP2;ratioP2
56269;SDS011;42176;43.240;27.880;2023-12-07T00:00:32;1.50;;;0.50;;
56269;SDS011;42176;43.240;27.880;2023-12-07T00:02:32;0.50;;;0.50;;
56269;SDS011;42176;43.240;27.880;2023-12-07T00:04:33;0.43;;;0.30;;
56269;SDS011;42176;43.240;27.880;2023-12-07T00:06:33;1.13;;;0.70;;
56269;SDS011;42176;43.240;27.880;2023-12-07T00:08:34;1.10;;;1.00;;
56269;SDS011;42176;43.240;27.880;2023-12-07T00:10:35;1.13;;;0.80;;
56269;SDS011;42176;43.240;27.880;2023-12-07T00:12:35;0.75;;;0.63;;
56269;SDS011;42176;43.240;27.880;2023-12-07T00:14:36;0.80;;;0.80;;
56269;SDS011;42176;43.240;27.880;2023-12-07T00:16:36;2.73;;;1.07;;
56269;SDS011;42176;43.240;27.880;2023-12-07T00:18:38;2.00;;;0.63;;
56269;SDS011;42176;43.240;27.880;2023-12-07T00:20:38;2.20;;;0.97;;
56269;SDS011;42176;43.240;27.880;2023-12-07T00:22:39;0.53;;;0.53;;
56269;SDS011;42176;43.240;27.880;2023-12-07T00:24:40;0.45;;;0.45;;
56269;SDS011;42176;43.240;27.880;2023-12-07T00:26:40;0.57;;;0.53;;
56269;SDS011;42176;43.240;27.880;2023-12-07T00:28:41;2.50;;;0.73;;
56269;SDS011;42176;43.240;27.880;2023-12-07T00:30:41;0.75;;;0.60;;
56269;SDS011;42176;43.240;27.880;2023-12-07T00:32:42;1.03;;;0.50;;
56269;SDS011;42176;43.240;27.880;2023-12-07T00:34:43;0.57;;;0.55;;
56269;SDS011;42176;43.240;27.880;2023-12-07T00:36:44;0.40;;;0.40;;
56269;SDS011;42176;43.240;27.880;2023-12-07T00:38:44;1.00;;;0.27;;
56269;SDS011;42176;43.240;27.880;2023-12-07T00:40:45;0.50;;;0.50;;
56269;SDS011;42176;43.240;27.880;2023-12-07T00:42:46;1.13;;;0.70;;
56269;SDS011;42176;43.240;27.880;2023-12-07T00:44:47;0.50;;;0.50;;
56269;SDS011;42176;43.240;27.880;2023-12-07T00:46:47;0.43;;;0.30;;
56269;SDS011;42176;43.240;27.880;2023-12-07T00:48:49;0.68;;;0.32;;
56269;SDS011;42176;43.240;27.880;2023-12-07T00:50:49;4.50;;;1.03;;
56269;SDS011;42176;43.240;27.880;2023-12-07T00:52:50;0.50;;;0.50;;
56269;SDS011;42176;43.240;27.880;2023-12-07T00:54:51;0.50;;;0.30;;
56269;SDS011;42176;43.240;27.880;2023-12-07T00:56:51;0.43;;;0.30;;
56269;SDS011;42176;43.240;27.880;2023-12-07T00:58:52;0.40;;;0.30;;
56269;SDS011;42176;43.240;27.880;2023-12-07T01:00:52;0.30;;;0.30;;
56269;SDS011;42176;43.240;27.880;2023-12-07T01:02:53;0.60;;;0.60;;
56269;SDS011;42176;43.240;27.880;2023-12-07T01:04:53;0.40;;;0.37;;
56269;SDS011;42176;43.240;27.880;2023-12-07T01:06:54;0.45;;;0.22;;
56269;SDS011;42176;43.240;27.880;2023-12-07T01:08:55;0.60;;;0.50;;
56269;SDS011;42176;43.240;27.880;2023-12-07T01:10:55;0.60;;;0.43;;
56269;SDS011;42176;43.240;27.880;2023-12-07T01:12:56;0.33;;;0.20;;
56269;SDS011;42176;43.240;27.880;2023-12-07T01:14:56;0.75;;;0.40;;
56269;SDS011;42176;43.240;27.880;2023-12-07T01:16:57;0.32;;;0.25;;
56269;SDS011;42176;43.240;27.880;2023-12-07T01:18:57;0.40;;;0.40;;
56269;SDS011;42176;43.240;27.880;2023-12-07T01:20:58;1.27;;;0.60;;
56269;SDS011;42176;43.240;27.880;2023-12-07T01:22:58;0.50;;;0.50;;
56269;SDS011;42176;43.240;27.880;2023-12-07T01:24:59;0.57;;;0.37;;
56269;SDS011;42176;43.240;27.880;2023-12-07T01:26:59;0.82;;;0.43;;
56269;SDS011;42176;43.240;27.880;2023-12-07T01:29:00;1.10;;;0.33;;
56269;SDS011;42176;43.240;27.880;2023-12-07T01:31:01;0.57;;;0.57;;
56269;SDS011;42176;43.240;27.880;2023-12-07T01:33:01;0.30;;;0.30;;
56269;SDS011;42176;43.240;27.880;2023-12-07T01:35:02;0.30;;;0.20;;
56269;SDS011;42176;43.240;27.880;2023-12-07T01:37:03;0.60;;;0.60;;
56269;SDS011;42176;43.240;27.880;2023-12-07T01:39:04;0.33;;;0.33;;
56269;SDS011;42176;43.240;27.880;2023-12-07T01:41:06;0.70;;;0.52;;
56269;SDS011;42176;43.240;27.880;2023-12-07T01:43:06;0.30;;;0.30;;
56269;SDS011;42176;43.240;27.880;2023-12-07T01:45:07;0.90;;;0.32;;
56269;SDS011;42176;43.240;27.880;2023-12-07T01:47:07;0.60;;;0.60;;
56269;SDS011;42176;43.240;27.880;2023-12-07T01:49:10;1.20;;;0.60;;
56269;SDS011;42176;43.240;27.880;2023-12-07T01:51:11;0.23;;;0.23;;
56269;SDS011;42176;43.240;27.880;2023-12-07T01:53:12;0.43;;;0.43;;
56269;SDS011;42176;43.240;27.880;2023-12-07T01:55:12;1.15;;;1.00;;
56269;SDS011;42176;43.240;27.880;2023-12-07T01:59:15;1.52;;;0.50;;
56269;SDS011;42176;43.240;27.880;2023-12-07T02:01:16;0.40;;;0.23;;
56269;SDS011;42176;43.240;27.880;2023-12-07T02:03:17;0.63;;;0.50;;
56269;SDS011;42176;43.240;27.880;2023-12-07T02:05:17;0.57;;;0.43;;
56269;SDS011;42176;43.240;27.880;2023-12-07T02:07:18;0.70;;;0.60;;
56269;SDS011;42176;43.240;27.880;2023-12-07T02:09:19;0.77;;;0.40;;
56269;SDS011;42176;43.240;27.880;2023-12-07T02:11:20;0.43;;;0.43;;
56269;SDS011;42176;43.240;27.880;2023-12-07T02:13:20;0.80;;;0.43;;
56269;SDS011;42176;43.240;27.880;2023-12-07T02:15:22;0.30;;;0.30;;
56269;SDS011;42176;43.240;27.880;2023-12-07T02:17:32;0.20;;;0.20;;
56269;SDS011;42176;43.240;27.880;2023-12-07T02:20:39;0.22;;;0.22;;
56269;SDS011;42176;43.240;27.880;2023-12-07T02:22:35;1.55;;;0.45;;
56269;SDS011;42176;43.240;27.880;2023-12-07T02:24:40;0.40;;;0.40;;
56269;SDS011;42176;43.240;27.880;2023-12-07T02:26:49;0.45;;;0.45;;
56269;SDS011;42176;43.240;27.880;2023-12-07T02:30:50;0.65;;;0.40;;
56269;SDS011;42176;43.240;27.880;2023-12-07T02:32:51;0.10;;;0.10;;
56269;SDS011;42176;43.240;27.880;2023-12-07T02:34:52;1.13;;;0.77;;
56269;SDS011;42176;43.240;27.880;2023-12-07T02:36:53;0.63;;;0.57;;
56269;SDS011;42176;43.240;27.880;2023-12-07T02:38:56;0.60;;;0.60;;
56269;SDS011;42176;43.240;27.880;2023-12-07T02:40:58;0.40;;;0.25;;
56269;SDS011;42176;43.240;27.880;2023-12-07T02:43:00;0.80;;;0.30;;
56269;SDS011;42176;43.240;27.880;2023-12-07T02:45:01;0.47;;;0.40;;
56269;SDS011;42176;43.240;27.880;2023-12-07T02:47:08;0.77;;;0.77;;
56269;SDS011;42176;43.240;27.880;2023-12-07T02:49:08;0.77;;;0.43;;
56269;SDS011;42176;43.240;27.880;2023-12-07T02:51:09;0.50;;;0.50;;
56269;SDS011;42176;43.240;27.880;2023-12-07T02:53:10;0.20;;;0.20;;
56269;SDS011;42176;43.240;27.880;2023-12-07T02:55:10;0.60;;;0.40;;
56269;SDS011;42176;43.240;27.880;2023-12-07T02:57:11;0.50;;;0.40;;
56269;SDS011;42176;43.240;27.880;2023-12-07T02:59:12;0.40;;;0.40;;
56269;SDS011;42176;43.240;27.880;2023-12-07T03:01:12;0.30;;;0.30;;
56269;SDS011;42176;43.240;27.880;2023-12-07T03:03:13;0.47;;;0.47;;
56269;SDS011;42176;43.240;27.880;2023-12-07T03:05:13;0.63;;;0.63;;
56269;SDS011;42176;43.240;27.880;2023-12-07T03:07:14;0.77;;;0.70;;
56269;SDS011;42176;43.240;27.880;2023-12-07T03:09:14;0.73;;;0.50;;
56269;SDS011;42176;43.240;27.880;2023-12-07T03:11:15;0.30;;;0.30;;
56269;SDS011;42176;43.240;27.880;2023-12-07T03:13:15;0.93;;;0.68;;
56269;SDS011;42176;43.240;27.880;2023-12-07T03:15:16;1.53;;;0.67;;
56269;SDS011;42176;43.240;27.880;2023-12-07T03:17:17;0.40;;;0.40;;
56269;SDS011;42176;43.240;27.880;2023-12-07T03:19:17;0.77;;;0.60;;
56269;SDS011;42176;43.240;27.880;2023-12-07T03:21:18;0.50;;;0.50;;
56269;SDS011;42176;43.240;27.880;2023-12-07T03:23:18;0.63;;;0.30;;
56269;SDS011;42176;43.240;27.880;2023-12-07T03:25:19;0.30;;;0.30;;
56269;SDS011;42176;43.240;27.880;2023-12-07T03:27:20;1.33;;;0.60;;
56269;SDS011;42176;43.240;27.880;2023-12-07T03:29:20;2.53;;;0.73;;
56269;SDS011;42176;43.240;27.880;2023-12-07T03:31:21;0.70;;;0.50;;
56269;SDS011;42176;43.240;27.880;2023-12-07T03:33:22;1.80;;;0.50;;
56269;SDS011;42176;43.240;27.880;2023-12-07T03:35:22;0.50;;;0.50;;
56269;SDS011;42176;43.240;27.880;2023-12-07T03:37:23;0.20;;;0.20;;
56269;SDS011;42176;43.240;27.880;2023-12-07T03:39:24;0.57;;;0.40;;
56269;SDS011;42176;43.240;27.880;2023-12-07T03:43:26;1.17;;;0.70;;
56269;SDS011;42176;43.240;27.880;2023-12-07T03:45:26;0.80;;;0.55;;
56269;SDS011;42176;43.240;27.880;2023-12-07T03:47:28;0.10;;;0.10;;
56269;SDS011;42176;43.240;27.880;2023-12-07T03:49:29;0.43;;;0.43;;
56269;SDS011;42176;43.240;27.880;2023-12-07T03:51:29;0.93;;;0.50;;
56269;SDS011;42176;43.240;27.880;2023-12-07T03:53:30;1.23;;;0.73;;
56269;SDS011;42176;43.240;27.880;2023-12-07T03:55:30;0.40;;;0.40;;
56269;SDS011;42176;43.240;27.880;2023-12-07T03:57:31;0.20;;;0.20;;
56269;SDS011;42176;43.240;27.880;2023-12-07T03:59:31;0.40;;;0.40;;
56269;SDS011;42176;43.240;27.880;2023-12-07T04:01:32;0.70;;;0.50;;
56269;SDS011;42176;43.240;27.880;2023-12-07T04:03:33;0.57;;;0.57;;
56269;SDS011;42176;43.240;27.880;2023-12-07T04:05:34;1.08;;;0.40;;
56269;SDS011;42176;43.240;27.880;2023-12-07T04:07:35;0.30;;;0.30;;
56269;SDS011;42176;43.240;27.880;2023-12-07T04:09:35;1.13;;;0.87;;
56269;SDS011;42176;43.240;27.880;2023-12-07T04:11:36;1.23;;;0.67;;
56269;SDS011;42176;43.240;27.880;2023-12-07T04:13:36;1.40;;;1.00;;
56269;SDS011;42176;43.240;27.880;2023-12-07T04:15:37;1.73;;;1.20;;
56269;SDS011;42176;43.240;27.880;2023-12-07T04:17:38;0.30;;;0.30;;
56269;SDS011;42176;43.240;27.880;2023-12-07T04:19:38;1.05;;;0.80;;
56269;SDS011;42176;43.240;27.880;2023-12-07T04:21:39;0.95;;;0.65;;
56269;SDS011;42176;43.240;27.880;2023-12-07T04:23:39;0.50;;;0.50;;
56269;SDS011;42176;43.240;27.880;2023-12-07T04:25:40;0.35;;;0.35;;
56269;SDS011;42176;43.240;27.880;2023-12-07T04:27:40;0.50;;;0.50;;
56269;SDS011;42176;43.240;27.880;2023-12-07T04:29:41;1.87;;;1.07;;
56269;SDS011;42176;43.240;27.880;2023-12-07T04:31:42;0.90;;;0.90;;
56269;SDS011;42176;43.240;27.880;2023-12-07T04:33:42;0.77;;;0.77;;
56269;SDS011;42176;43.240;27.880;2023-12-07T04:35:43;2.53;;;1.80;;
56269;SDS011;42176;43.240;27.880;2023-12-07T04:37:43;0.63;;;0.60;;
56269;SDS011;42176;43.240;27.880;2023-12-07T04:39:44;2.40;;;1.43;;
56269;SDS011;42176;43.240;27.880;2023-12-07T04:41:44;1.97;;;1.43;;
56269;SDS011;42176;43.240;27.880;2023-12-07T04:43:45;1.20;;;1.02;;
56269;SDS011;42176;43.240;27.880;2023-12-07T04:45:45;1.85;;;1.20;;
56269;SDS011;42176;43.240;27.880;2023-12-07T04:47:46;0.90;;;0.87;;
56269;SDS011;42176;43.240;27.880;2023-12-07T04:49:46;1.15;;;0.93;;
56269;SDS011;42176;43.240;27.880;2023-12-07T04:51:47;1.60;;;1.23;;
56269;SDS011;42176;43.240;27.880;2023-12-07T04:53:47;1.17;;;1.03;;
56269;SDS011;42176;43.240;27.880;2023-12-07T04:55:48;1.90;;;0.63;;
56269;SDS011;42176;43.240;27.880;2023-12-07T04:57:50;1.88;;;0.82;;
56269;SDS011;42176;43.240;27.880;2023-12-07T04:59:50;7.00;;;1.07;;
56269;SDS011;42176;43.240;27.880;2023-12-07T05:01:51;1.33;;;1.10;;
56269;SDS011;42176;43.240;27.880;2023-12-07T05:03:52;1.40;;;1.10;;
56269;SDS011;42176;43.240;27.880;2023-12-07T05:05:52;2.63;;;1.10;;
56269;SDS011;42176;43.240;27.880;2023-12-07T05:07:53;1.40;;;0.70;;
56269;SDS011;42176;43.240;27.880;2023-12-07T05:09:53;0.87;;;0.63;;
56269;SDS011;42176;43.240;27.880;2023-12-07T05:11:54;0.95;;;0.85;;
56269;SDS011;42176;43.240;27.880;2023-12-07T05:13:54;1.27;;;0.57;;
56269;SDS011;42176;43.240;27.880;2023-12-07T05:15:55;1.40;;;1.00;;
56269;SDS011;42176;43.240;27.880;2023-12-07T05:17:55;3.28;;;1.08;;
56269;SDS011;42176;43.240;27.880;2023-12-07T05:19:56;2.80;;;1.00;;
56269;SDS011;42176;43.240;27.880;2023-12-07T05:21:56;1.67;;;1.25;;
56269;SDS011;42176;43.240;27.880;2023-12-07T05:23:57;2.63;;;0.97;;
56269;SDS011;42176;43.240;27.880;2023-12-07T05:25:58;0.97;;;0.77;;
56269;SDS011;42176;43.240;27.880;2023-12-07T05:27:59;1.33;;;1.23;;
56269;SDS011;42176;43.240;27.880;2023-12-07T05:30:00;1.17;;;1.08;;
56269;SDS011;42176;43.240;27.880;2023-12-07T05:32:01;1.43;;;1.33;;
56269;SDS011;42176;43.240;27.880;2023-12-07T05:34:02;1.75;;;1.02;;
56269;SDS011;42176;43.240;27.880;2023-12-07T05:36:03;0.68;;;0.68;;
56269;SDS011;42176;43.240;27.880;2023-12-07T05:38:04;1.23;;;1.13;;
56269;SDS011;42176;43.240;27.880;2023-12-07T05:40:05;1.90;;;1.17;;
56269;SDS011;42176;43.240;27.880;2023-12-07T05:42:06;1.45;;;1.25;;
56269;SDS011;42176;43.240;27.880;2023-12-07T05:44:07;1.70;;;1.27;;
56269;SDS011;42176;43.240;27.880;2023-12-07T05:46:08;1.63;;;1.17;;
56269;SDS011;42176;43.240;27.880;2023-12-07T05:48:08;1.50;;;1.10;;
56269;SDS011;42176;43.240;27.880;2023-12-07T05:50:10;1.48;;;1.05;;
56269;SDS011;42176;43.240;27.880;2023-12-07T05:52:10;1.70;;;1.47;;
56269;SDS011;42176;43.240;27.880;2023-12-07T05:54:11;2.40;;;2.15;;
56269;SDS011;42176;43.240;27.880;2023-12-07T05:56:11;3.00;;;1.60;;
56269;SDS011;42176;43.240;27.880;2023-12-07T05:58:12;2.00;;;1.13;;
56269;SDS011;42176;43.240;27.880;2023-12-07T06:00:13;2.47;;;1.55;;
56269;SDS011;42176;43.240;27.880;2023-12-07T06:02:16;1.70;;;1.60;;
56269;SDS011;42176;43.240;27.880;2023-12-07T06:04:16;2.08;;;1.45;;
56269;SDS011;42176;43.240;27.880;2023-12-07T06:06:17;1.48;;;1.38;;
56269;SDS011;42176;43.240;27.880;2023-12-07T06:08:19;2.30;;;1.05;;
56269;SDS011;42176;43.240;27.880;2023-12-07T06:10:20;5.83;;;1.97;;
56269;SDS011;42176;43.240;27.880;2023-12-07T06:12:20;2.40;;;2.15;;
56269;SDS011;42176;43.240;27.880;2023-12-07T06:14:22;2.47;;;1.58;;
56269;SDS011;42176;43.240;27.880;2023-12-07T06:16:25;1.92;;;1.30;;
56269;SDS011;42176;43.240;27.880;2023-12-07T06:18:26;1.88;;;1.65;;
56269;SDS011;42176;43.240;27.880;2023-12-07T06:20:27;2.80;;;1.63;;
56269;SDS011;42176;43.240;27.880;2023-12-07T06:22:28;2.60;;;1.23;;
56269;SDS011;42176;43.240;27.880;2023-12-07T06:24:29;3.38;;;1.40;;
56269;SDS011;42176;43.240;27.880;2023-12-07T06:26:30;1.30;;;1.20;;
56269;SDS011;42176;43.240;27.880;2023-12-07T06:28:30;3.80;;;1.87;;
56269;SDS011;42176;43.240;27.880;2023-12-07T06:30:32;1.02;;;0.85;;
56269;SDS011;42176;43.240;27.880;2023-12-07T06:32:33;2.35;;;1.92;;
56269;SDS011;42176;43.240;27.880;2023-12-07T06:34:34;3.00;;;1.90;;
56269;SDS011;42176;43.240;27.880;2023-12-07T06:36:40;3.75;;;2.10;;
56269;SDS011;42176;43.240;27.880;2023-12-07T06:38:40;3.67;;;1.80;;
56269;SDS011;42176;43.240;27.880;2023-12-07T06:40:41;2.38;;;2.00;;
56269;SDS011;42176;43.240;27.880;2023-12-07T06:42:42;2.73;;;1.93;;
56269;SDS011;42176;43.240;27.880;2023-12-07T06:44:49;2.97;;;1.97;;
56269;SDS011;42176;43.240;27.880;2023-12-07T06:46:49;1.83;;;1.27;;
56269;SDS011;42176;43.240;27.880;2023-12-07T06:48:50;1.73;;;1.63;;
56269;SDS011;42176;43.240;27.880;2023-12-07T06:50:50;3.33;;;2.53;;
56269;SDS011;42176;43.240;27.880;2023-12-07T06:52:51;1.90;;;0.70;;
56269;SDS011;42176;43.240;27.880;2023-12-07T06:54:51;1.48;;;1.25;;
56269;SDS011;42176;43.240;27.880;2023-12-07T06:56:52;2.07;;;1.37;;
56269;SDS011;42176;43.240;27.880;2023-12-07T06:58:53;6.20;;;1.35;;
56269;SDS011;42176;43.240;27.880;2023-12-07T07:00:54;0.98;;;0.63;;
56269;SDS011;42176;43.240;27.880;2023-12-07T07:02:54;2.33;;;1.45;;
56269;SDS011;42176;43.240;27.880;2023-12-07T07:04:55;1.40;;;1.17;;
56269;SDS011;42176;43.240;27.880;2023-12-07T07:06:55;1.13;;;1.03;;
56269;SDS011;42176;43.240;27.880;2023-12-07T07:08:56;3.13;;;2.10;;
56269;SDS011;42176;43.240;27.880;2023-12-07T07:10:57;3.47;;;1.87;;
56269;SDS011;42176;43.240;27.880;2023-12-07T07:13:01;2.00;;;1.83;;
56269;SDS011;42176;43.240;27.880;2023-12-07T07:15:06;1.38;;;1.02;;
56269;SDS011;42176;43.240;27.880;2023-12-07T07:17:08;2.33;;;1.02;;
56269;SDS011;42176;43.240;27.880;2023-12-07T07:19:09;2.20;;;1.40;;
56269;SDS011;42176;43.240;27.880;2023-12-07T07:21:10;1.30;;;1.20;;
56269;SDS011;42176;43.240;27.880;2023-12-07T07:23:11;1.30;;;0.90;;
56269;SDS011;42176;43.240;27.880;2023-12-07T07:25:12;2.97;;;1.80;;
56269;SDS011;42176;43.240;27.880;2023-12-07T07:27:14;1.17;;;1.08;;
56269;SDS011;42176;43.240;27.880;2023-12-07T07:29:15;2.15;;;1.40;;
56269;SDS011;42176;43.240;27.880;2023-12-07T07:31:15;0.82;;;0.82;;
56269;SDS011;42176;43.240;27.880;2023-12-07T07:33:16;2.27;;;1.30;;
56269;SDS011;42176;43.240;27.880;2023-12-07T07:35:16;1.33;;;0.70;;
56269;SDS011;42176;43.240;27.880;2023-12-07T07:37:17;2.80;;;2.13;;
56269;SDS011;42176;43.240;27.880;2023-12-07T07:41:38;3.50;;;1.08;;
56269;SDS011;42176;43.240;27.880;2023-12-07T07:43:38;1.37;;;1.03;;
56269;SDS011;42176;43.240;27.880;2023-12-07T07:45:39;4.32;;;0.93;;
56269;SDS011;42176;43.240;27.880;2023-12-07T07:47:39;0.73;;;0.73;;
56269;SDS011;42176;43.240;27.880;2023-12-07T07:49:40;1.20;;;0.90;;
56269;SDS011;42176;43.240;27.880;2023-12-07T07:51:41;3.35;;;1.13;;
56269;SDS011;42176;43.240;27.880;2023-12-07T07:53:41;1.27;;;1.15;;
56269;SDS011;42176;43.240;27.880;2023-12-07T07:55:42;1.17;;;1.02;;
56269;SDS011;42176;43.240;27.880;2023-12-07T07:57:42;1.05;;;0.95;;
56269;SDS011;42176;43.240;27.880;2023-12-07T07:59:43;1.90;;;1.23;;
56269;SDS011;42176;43.240;27.880;2023-12-07T08:01:45;1.60;;;1.10;;
56269;SDS011;42176;43.240;27.880;2023-12-07T08:03:47;3.22;;;1.75;;
56269;SDS011;42176;43.240;27.880;2023-12-07T08:05:47;0.97;;;0.90;;
56269;SDS011;42176;43.240;27.880;2023-12-07T08:07:48;0.57;;;0.57;;
56269;SDS011;42176;43.240;27.880;2023-12-07T08:09:48;1.65;;;1.25;;
56269;SDS011;42176;43.240;27.880;2023-12-07T08:11:49;4.07;;;0.85;;
56269;SDS011;42176;43.240;27.880;2023-12-07T08:13:50;1.10;;;1.08;;
56269;SDS011;42176;43.240;27.880;2023-12-07T08:15:50;2.20;;;1.38;;
56269;SDS011;42176;43.240;27.880;2023-12-07T08:17:51;1.95;;;1.42;;
56269;SDS011;42176;43.240;27.880;2023-12-07T08:19:52;1.30;;;1.10;;
56269;SDS011;42176;43.240;27.880;2023-12-07T08:21:53;3.85;;;1.10;;
56269;SDS011;42176;43.240;27.880;2023-12-07T08:23:53;2.33;;;0.93;;
56269;SDS011;42176;43.240;27.880;2023-12-07T08:25:54;1.30;;;1.20;;
56269;SDS011;42176;43.240;27.880;2023-12-07T08:27:57;1.40;;;1.30;;
56269;SDS011;42176;43.240;27.880;2023-12-07T08:29:57;2.07;;;1.67;;
56269;SDS011;42176;43.240;27.880;2023-12-07T08:31:58;1.63;;;1.33;;
56269;SDS011;42176;43.240;27.880;2023-12-07T08:33:59;2.85;;;1.38;;
56269;SDS011;42176;43.240;27.880;2023-12-07T08:36:01;2.67;;;1.52;;
56269;SDS011;42176;43.240;27.880;2023-12-07T08:38:02;1.45;;;0.80;;
56269;SDS011;42176;43.240;27.880;2023-12-07T08:40:04;1.70;;;1.40;;
56269;SDS011;42176;43.240;27.880;2023-12-07T08:42:05;1.88;;;1.52;;
56269;SDS011;42176;43.240;27.880;2023-12-07T08:44:06;3.13;;;1.57;;
56269;SDS011;42176;43.240;27.880;2023-12-07T08:46:06;2.25;;;0.80;;
56269;SDS011;42176;43.240;27.880;2023-12-07T08:48:07;1.15;;;1.00;;
56269;SDS011;42176;43.240;27.880;2023-12-07T08:50:08;1.63;;;1.40;;
56269;SDS011;42176;43.240;27.880;2023-12-07T08:52:09;3.58;;;1.42;;
56269;SDS011;42176;43.240;27.880;2023-12-07T08:54:10;5.35;;;1.08;;
56269;SDS011;42176;43.240;27.880;2023-12-07T08:56:10;1.35;;;1.25;;
56269;SDS011;42176;43.240;27.880;2023-12-07T08:58:13;2.63;;;1.30;;
56269;SDS011;42176;43.240;27.880;2023-12-07T09:00:14;6.93;;;3.03;;
56269;SDS011;42176;43.240;27.880;2023-12-07T09:02:15;4.07;;;0.97;;
56269;SDS011;42176;43.240;27.880;2023-12-07T09:04:15;0.80;;;0.65;;
56269;SDS011;42176;43.240;27.880;2023-12-07T09:06:16;1.30;;;1.20;;
56269;SDS011;42176;43.240;27.880;2023-12-07T09:08:16;2.13;;;1.30;;
56269;SDS011;42176;43.240;27.880;2023-12-07T09:10:17;1.97;;;1.37;;
56269;SDS011;42176;43.240;27.880;2023-12-07T09:12:18;3.90;;;1.13;;
56269;SDS011;42176;43.240;27.880;2023-12-07T09:14:18;2.50;;;1.05;;
56269;SDS011;42176;43.240;27.880;2023-12-07T09:16:19;2.47;;;0.82;;
56269;SDS011;42176;43.240;27.880;2023-12-07T09:18:21;0.90;;;0.82;;
56269;SDS011;42176;43.240;27.880;2023-12-07T09:20:21;2.07;;;1.43;;
56269;SDS011;42176;43.240;27.880;2023-12-07T09:22:22;2.10;;;1.23;;
56269;SDS011;42176;43.240;27.880;2023-12-07T09:24:23;1.77;;;1.60;;
56269;SDS011;42176;43.240;27.880;2023-12-07T09:26:23;1.37;;;1.27;;
56269;SDS011;42176;43.240;27.880;2023-12-07T09:28:24;0.88;;;0.55;;
56269;SDS011;42176;43.240;27.880;2023-12-07T09:30:24;1.42;;;1.20;;
56269;SDS011;42176;43.240;27.880;2023-12-07T09:32:25;1.25;;;0.90;;
56269;SDS011;42176;43.240;27.880;2023-12-07T09:34:28;1.15;;;0.80;;
56269;SDS011;42176;43.240;27.880;2023-12-07T09:36:28;0.98;;;0.98;;
56269;SDS011;42176;43.240;27.880;2023-12-07T09:38:29;2.53;;;1.47;;
56269;SDS011;42176;43.240;27.880;2023-12-07T09:40:29;1.23;;;0.98;;
56269;SDS011;42176;43.240;27.880;2023-12-07T09:42:30;0.60;;;0.60;;
56269;SDS011;42176;43.240;27.880;2023-12-07T09:44:31;0.75;;;0.63;;
56269;SDS011;42176;43.240;27.880;2023-12-07T09:46:32;0.80;;;0.80;;
56269;SDS011;42176;43.240;27.880;2023-12-07T09:48:33;1.40;;;1.25;;
56269;SDS011;42176;43.240;27.880;2023-12-07T09:52:36;0.82;;;0.82;;
56269;SDS011;42176;43.240;27.880;2023-12-07T09:54:39;1.00;;;0.80;;
56269;SDS011;42176;43.240;27.880;2023-12-07T09:56:42;2.33;;;1.70;;
56269;SDS011;42176;43.240;27.880;2023-12-07T09:58:43;1.58;;;1.48;;
56269;SDS011;42176;43.240;27.880;2023-12-07T10:00:44;1.50;;;1.40;;
56269;SDS011;42176;43.240;27.880;2023-12-07T10:02:47;3.20;;;1.80;;
56269;SDS011;42176;43.240;27.880;2023-12-07T10:04:47;2.85;;;2.13;;
56269;SDS011;42176;43.240;27.880;2023-12-07T10:06:48;1.83;;;1.67;;
56269;SDS011;42176;43.240;27.880;2023-12-07T10:08:49;1.88;;;1.08;;
56269;SDS011;42176;43.240;27.880;2023-12-07T10:10:53;2.10;;;1.20;;
56269;SDS011;42176;43.240;27.880;2023-12-07T10:13:12;2.70;;;1.23;;
56269;SDS011;42176;43.240;27.880;2023-12-07T10:15:16;2.83;;;1.40;;
56269;SDS011;42176;43.240;27.880;2023-12-07T10:17:17;4.25;;;2.10;;
56269;SDS011;42176;43.240;27.880;2023-12-07T10:19:18;1.00;;;1.00;;
56269;SDS011;42176;43.240;27.880;2023-12-07T10:21:31;1.45;;;1.38;;
56269;SDS011;42176;43.240;27.880;2023-12-07T10:23:32;3.97;;;2.00;;
56269;SDS011;42176;43.240;27.880;2023-12-07T10:25:37;8.38;;;2.33;;
56269;SDS011;42176;43.240;27.880;2023-12-07T10:27:42;1.48;;;1.27;;
56269;SDS011;42176;43.240;27.880;2023-12-07T10:29:44;4.10;;;2.55;;
56269;SDS011;42176;43.240;27.880;2023-12-07T10:33:47;7.30;;;4.03;;
56269;SDS011;42176;43.240;27.880;2023-12-07T10:37:50;2.60;;;1.80;;
56269;SDS011;42176;43.240;27.880;2023-12-07T10:39:51;5.05;;;1.50;;
56269;SDS011;42176;43.240;27.880;2023-12-07T10:41:51;5.70;;;3.60;;
56269;SDS011;42176;43.240;27.880;2023-12-07T10:43:59;5.45;;;3.47;;
56269;SDS011;42176;43.240;27.880;2023-12-07T10:46:01;3.55;;;1.60;;
56269;SDS011;42176;43.240;27.880;2023-12-07T10:48:06;3.65;;;2.08;;
56269;SDS011;42176;43.240;27.880;2023-12-07T10:50:09;5.28;;;3.13;;
56269;SDS011;42176;43.240;27.880;2023-12-07T10:52:12;7.15;;;2.35;;
56269;SDS011;42176;43.240;27.880;2023-12-07T10:54:16;6.18;;;3.50;;
56269;SDS011;42176;43.240;27.880;2023-12-07T10:56:29;8.23;;;4.05;;
56269;SDS011;42176;43.240;27.880;2023-12-07T10:58:40;6.90;;;3.92;;
56269;SDS011;42176;43.240;27.880;2023-12-07T11:00:42;3.63;;;1.77;;
56269;SDS011;42176;43.240;27.880;2023-12-07T11:02:47;2.45;;;2.17;;
56269;SDS011;42176;43.240;27.880;2023-12-07T11:04:47;2.72;;;1.30;;
56269;SDS011;42176;43.240;27.880;2023-12-07T11:06:48;6.60;;;3.47;;
56269;SDS011;42176;43.240;27.880;2023-12-07T11:08:55;5.15;;;3.90;;
56269;SDS011;42176;43.240;27.880;2023-12-07T11:13:22;4.53;;;3.13;;
56269;SDS011;42176;43.240;27.880;2023-12-07T11:15:35;4.93;;;2.72;;
56269;SDS011;42176;43.240;27.880;2023-12-07T11:17:52;5.18;;;2.83;;
56269;SDS011;42176;43.240;27.880;2023-12-07T11:19:55;7.57;;;3.92;;
56269;SDS011;42176;43.240;27.880;2023-12-07T11:22:00;7.45;;;4.30;;
56269;SDS011;42176;43.240;27.880;2023-12-07T11:24:01;10.05;;;4.97;;
56269;SDS011;42176;43.240;27.880;2023-12-07T11:26:02;9.60;;;5.70;;
56269;SDS011;42176;43.240;27.880;2023-12-07T11:28:03;7.07;;;4.38;;
56269;SDS011;42176;43.240;27.880;2023-12-07T11:30:05;7.20;;;3.88;;
56269;SDS011;42176;43.240;27.880;2023-12-07T11:32:07;4.85;;;3.13;;
56269;SDS011;42176;43.240;27.880;2023-12-07T11:34:08;2.85;;;2.58;;
56269;SDS011;42176;43.240;27.880;2023-12-07T11:36:13;4.97;;;3.83;;
56269;SDS011;42176;43.240;27.880;2023-12-07T11:38:14;6.60;;;4.20;;
56269;SDS011;42176;43.240;27.880;2023-12-07T11:40:19;5.90;;;3.15;;
56269;SDS011;42176;43.240;27.880;2023-12-07T11:42:19;7.95;;;4.78;;
56269;SDS011;42176;43.240;27.880;2023-12-07T11:44:20;7.65;;;4.45;;
56269;SDS011;42176;43.240;27.880;2023-12-07T11:46:24;7.75;;;4.63;;
56269;SDS011;42176;43.240;27.880;2023-12-07T11:48:25;5.85;;;3.00;;
56269;SDS011;42176;43.240;27.880;2023-12-07T11:50:26;7.53;;;5.15;;
56269;SDS011;42176;43.240;27.880;2023-12-07T11:52:26;9.80;;;4.97;;
56269;SDS011;42176;43.240;27.880;2023-12-07T11:54:28;6.82;;;4.43;;
56269;SDS011;42176;43.240;27.880;2023-12-07T11:56:28;3.53;;;2.78;;
56269;SDS011;42176;43.240;27.880;2023-12-07T11:58:29;2.72;;;2.33;;
56269;SDS011;42176;43.240;27.880;2023-12-07T12:00:32;0.75;;;0.68;;
56269;SDS011;42176;43.240;27.880;2023-12-07T12:02:33;5.10;;;3.13;;
56269;SDS011;42176;43.240;27.880;2023-12-07T12:04:36;8.57;;;4.43;;
56269;SDS011;42176;43.240;27.880;2023-12-07T12:06:38;6.85;;;4.80;;
56269;SDS011;42176;43.240;27.880;2023-12-07T12:08:41;6.35;;;4.45;;
56269;SDS011;42176;43.240;27.880;2023-12-07T12:10:42;10.18;;;5.32;;
56269;SDS011;42176;43.240;27.880;2023-12-07T12:12:43;9.77;;;3.33;;
56269;SDS011;42176;43.240;27.880;2023-12-07T12:14:44;8.88;;;3.20;;
56269;SDS011;42176;43.240;27.880;2023-12-07T12:16:45;3.45;;;2.25;;